Palanca Rio — V7QS4 — position and weather

sailwx.info

Track history (hours):
 
Tides and Currents Weather Stations Pressure Air Temp Water Temp Dewpoint Dewpoint Depression Visibility Wind Speed Wind Dir Waves Ship Positions

Palanca Rio

Last reported at 2018-Jan-20 03:13 UTC. Time now 2018-Jan-21 04:55 UTC.
Position N 39°01' W 075°14'.

Length 133 m; draft 5.9 m.

Type: Ship. MMSI: 538006907.

Date/timePositionNaut miles runAvg speedWind from/ knotsBaromVisibWave heightAir tempDewpointWater temp
2018-Jan-20 03:13N 39°01' W 075°14'0 0.0
2018-Jan-20 02:58N 39°01' W 075°14'0 0.0
2018-Jan-20 02:28N 39°01' W 075°14'0 0.0
2018-Jan-20 01:55N 39°01' W 075°14'0 0.0
2018-Jan-20 01:28N 39°01' W 075°14'0 0.0
2018-Jan-19 23:40N 39°01' W 075°14'0 0.0
2018-Jan-19 23:25N 39°01' W 075°14'0 0.2
2018-Jan-19 22:58N 39°01' W 075°14'0 0.2
2018-Jan-19 22:25N 39°01' W 075°14'0 0.1
2018-Jan-19 21:58N 39°01' W 075°14'0 0.0
2018-Jan-19 21:28N 39°01' W 075°14'0 0.0
2018-Jan-19 20:58N 39°01' W 075°14'0 0.0
2018-Jan-19 20:28N 39°01' W 075°14'0 0.0
2018-Jan-19 19:58N 39°01' W 075°14'0 0.0
2018-Jan-19 19:28N 39°01' W 075°14'0 0.0
2018-Jan-19 18:55N 39°01' W 075°14'0 0.0
2018-Jan-19 18:28N 39°01' W 075°14'0 0.0
2018-Jan-19 17:55N 39°01' W 075°14'0 0.1
2018-Jan-19 17:28N 39°01' W 075°14'0 0.2
2018-Jan-19 16:58N 39°01' W 075°14'0 0.0
2018-Jan-19 13:22N 39°01' W 075°14'0 0.0
2018-Jan-19 12:58N 39°01' W 075°14'0 0.0
2018-Jan-19 12:01N 39°01' W 075°14'0 0.2
2018-Jan-19 11:55N 39°01' W 075°14'0 0.0
2018-Jan-19 11:19N 39°01' W 075°14'0 0.4
2018-Jan-19 11:00N 39°01' W 075°14'2 3.6
2018-Jan-19 10:30N 38°59' W 075°13'611.1
2018-Jan-19 10:00N 38°55' W 075°09'4 7.1
2018-Jan-19 09:29N 38°58' W 075°07'713.8
2018-Jan-19 08:59N 39°04' W 075°11'714.5
2018-Jan-19 08:30N 39°10' W 075°16'714.6
2018-Jan-19 08:01N 39°16' W 075°21'714.5
2018-Jan-19 07:30N 39°22' W 075°27'713.8
2018-Jan-19 07:00N 39°27' W 075°33'612.6
2018-Jan-19 06:31N 39°33' W 075°33'510.9
2018-Jan-19 06:01N 39°39' W 075°34'510.3
2018-Jan-19 05:30N 39°43' W 075°30'5 9.7
2018-Jan-19 05:01N 39°47' W 075°27'5 9.6
2018-Jan-19 04:30N 39°50' W 075°22'5 9.2
2018-Jan-19 04:00N 39°51' W 075°16'2 4.1
2018-Jan-19 03:29N 39°52' W 075°14'0 0.2
2018-Jan-19 02:59N 39°51' W 075°14'0 0.1
2018-Jan-19 02:29N 39°51' W 075°14'0 0.0
2018-Jan-19 01:59N 39°51' W 075°14'0 0.1
2018-Jan-19 01:29N 39°51' W 075°14'0 0.0
2018-Jan-19 00:59N 39°51' W 075°14'0 0.0
2018-Jan-19 00:29N 39°51' W 075°14'0 0.0
2018-Jan-18 23:59N 39°51' W 075°14'0 0.0
2018-Jan-18 23:29N 39°51' W 075°14'0 0.0
2018-Jan-18 22:59N 39°51' W 075°14'0 0.0
2018-Jan-18 22:29N 39°51' W 075°14'0 0.0
2018-Jan-18 21:59N 39°51' W 075°14'0 0.1
2018-Jan-18 21:29N 39°51' W 075°14'0 0.1
2018-Jan-18 20:56N 39°51' W 075°14'0 0.0
2018-Jan-18 20:05N 39°51' W 075°14'0 0.0
2018-Jan-18 19:59N 39°51' W 075°14'0 0.1
2018-Jan-18 19:29N 39°52' W 075°14'0 0.0
2018-Jan-18 18:59N 39°52' W 075°14'0 0.2
2018-Jan-18 18:29N 39°51' W 075°14'0 0.4
2018-Jan-18 17:59N 39°51' W 075°14'0 0.0
2018-Jan-18 17:28N 39°51' W 075°14'0 0.0
2018-Jan-18 16:58N 39°51' W 075°14'0 0.0
2018-Jan-18 16:28N 39°51' W 075°14'0 0.0
2018-Jan-18 16:01N 39°51' W 075°14'0 0.0
2018-Jan-18 15:25N 39°51' W 075°14'0 0.0
2018-Jan-18 14:58N 39°51' W 075°14'0 0.0
2018-Jan-18 14:28N 39°51' W 075°14'0 0.0
2018-Jan-18 13:55N 39°51' W 075°14'0 0.0
2018-Jan-18 13:28N 39°51' W 075°14'0 0.0
2018-Jan-18 12:55N 39°51' W 075°14'0 0.0
2018-Jan-18 12:30N 39°51' W 075°14'0 0.0
2018-Jan-18 11:58N 39°51' W 075°14'0 0.0
2018-Jan-18 11:28N 39°51' W 075°14'0 0.0
2018-Jan-18 11:01N 39°51' W 075°14'0 0.0
2018-Jan-18 10:30N 39°51' W 075°14'0 0.0
2018-Jan-18 09:58N 39°51' W 075°14'0 0.0
2018-Jan-18 09:28N 39°51' W 075°14'0 0.0
2018-Jan-18 09:00N 39°51' W 075°14'0 0.0
2018-Jan-18 08:31N 39°51' W 075°14'0 0.0
2018-Jan-18 08:01N 39°51' W 075°14'0 0.0
2018-Jan-18 07:31N 39°51' W 075°14'0 0.0
2018-Jan-18 07:01N 39°51' W 075°14'0 0.0
2018-Jan-18 06:31N 39°51' W 075°14'0 0.0
2018-Jan-18 05:58N 39°51' W 075°14'0 0.0
2018-Jan-18 05:28N 39°51' W 075°14'0 0.0
2018-Jan-18 04:58N 39°51' W 075°14'0 0.0
2018-Jan-18 04:28N 39°51' W 075°14'0 0.0
2018-Jan-18 03:58N 39°51' W 075°14'0 0.0
2018-Jan-18 03:28N 39°51' W 075°14'0 0.0
2018-Jan-18 02:58N 39°51' W 075°14'0 0.0
2018-Jan-18 02:25N 39°51' W 075°14'0 0.0
2018-Jan-18 01:58N 39°51' W 075°14'0 0.0
2018-Jan-18 01:25N 39°51' W 075°14'0 0.0
2018-Jan-18 00:58N 39°51' W 075°14'0 0.0
2018-Jan-17 23:58N 39°51' W 075°14'0 0.0
2018-Jan-17 23:55N 39°51' W 075°14'  
Track history (hours):
 
Tides and Currents Weather Stations Pressure Air Temp Water Temp Dewpoint Dewpoint Depression Visibility Wind Speed Wind Dir Waves Ship Positions

Palanca Rio

Last reported at 2018-Jan-20 03:13 UTC. Time now 2018-Jan-21 04:55 UTC.
Position N 39°01' W 075°14'.

Length 133 m; draft 5.9 m.

Type: Ship. MMSI: 538006907.

Date/timePositionNaut miles runAvg speedWind from/ knotsBaromVisibWave heightAir tempDewpointWater temp
2018-Jan-20 03:13N 39°01' W 075°14'0 0.0
2018-Jan-20 02:58N 39°01' W 075°14'0 0.0
2018-Jan-20 02:28N 39°01' W 075°14'0 0.0
2018-Jan-20 01:55N 39°01' W 075°14'0 0.0
2018-Jan-20 01:28N 39°01' W 075°14'0 0.0
2018-Jan-19 23:40N 39°01' W 075°14'0 0.0
2018-Jan-19 23:25N 39°01' W 075°14'0 0.2
2018-Jan-19 22:58N 39°01' W 075°14'0 0.2
2018-Jan-19 22:25N 39°01' W 075°14'0 0.1
2018-Jan-19 21:58N 39°01' W 075°14'0 0.0
2018-Jan-19 21:28N 39°01' W 075°14'0 0.0
2018-Jan-19 20:58N 39°01' W 075°14'0 0.0
2018-Jan-19 20:28N 39°01' W 075°14'0 0.0
2018-Jan-19 19:58N 39°01' W 075°14'0 0.0
2018-Jan-19 19:28N 39°01' W 075°14'0 0.0
2018-Jan-19 18:55N 39°01' W 075°14'0 0.0
2018-Jan-19 18:28N 39°01' W 075°14'0 0.0
2018-Jan-19 17:55N 39°01' W 075°14'0 0.1
2018-Jan-19 17:28N 39°01' W 075°14'0 0.2
2018-Jan-19 16:58N 39°01' W 075°14'0 0.0
2018-Jan-19 13:22N 39°01' W 075°14'0 0.0
2018-Jan-19 12:58N 39°01' W 075°14'0 0.0
2018-Jan-19 12:01N 39°01' W 075°14'0 0.2
2018-Jan-19 11:55N 39°01' W 075°14'0 0.0
2018-Jan-19 11:19N 39°01' W 075°14'0 0.4
2018-Jan-19 11:00N 39°01' W 075°14'2 3.6
2018-Jan-19 10:30N 38°59' W 075°13'611.1
2018-Jan-19 10:00N 38°55' W 075°09'4 7.1
2018-Jan-19 09:29N 38°58' W 075°07'713.8
2018-Jan-19 08:59N 39°04' W 075°11'714.5
2018-Jan-19 08:30N 39°10' W 075°16'714.6
2018-Jan-19 08:01N 39°16' W 075°21'714.5
2018-Jan-19 07:30N 39°22' W 075°27'713.8
2018-Jan-19 07:00N 39°27' W 075°33'612.6
2018-Jan-19 06:31N 39°33' W 075°33'510.9
2018-Jan-19 06:01N 39°39' W 075°34'510.3
2018-Jan-19 05:30N 39°43' W 075°30'5 9.7
2018-Jan-19 05:01N 39°47' W 075°27'5 9.6
2018-Jan-19 04:30N 39°50' W 075°22'5 9.2
2018-Jan-19 04:00N 39°51' W 075°16'2 4.1
2018-Jan-19 03:29N 39°52' W 075°14'0 0.2
2018-Jan-19 02:59N 39°51' W 075°14'0 0.1
2018-Jan-19 02:29N 39°51' W 075°14'0 0.0
2018-Jan-19 01:59N 39°51' W 075°14'0 0.1
2018-Jan-19 01:29N 39°51' W 075°14'0 0.0
2018-Jan-19 00:59N 39°51' W 075°14'0 0.0
2018-Jan-19 00:29N 39°51' W 075°14'0 0.0
2018-Jan-18 23:59N 39°51' W 075°14'0 0.0
2018-Jan-18 23:29N 39°51' W 075°14'0 0.0
2018-Jan-18 22:59N 39°51' W 075°14'0 0.0
2018-Jan-18 22:29N 39°51' W 075°14'0 0.0
2018-Jan-18 21:59N 39°51' W 075°14'0 0.1
2018-Jan-18 21:29N 39°51' W 075°14'0 0.1
2018-Jan-18 20:56N 39°51' W 075°14'0 0.0
2018-Jan-18 20:05N 39°51' W 075°14'0 0.0
2018-Jan-18 19:59N 39°51' W 075°14'0 0.1
2018-Jan-18 19:29N 39°52' W 075°14'0 0.0
2018-Jan-18 18:59N 39°52' W 075°14'0 0.2
2018-Jan-18 18:29N 39°51' W 075°14'0 0.4
2018-Jan-18 17:59N 39°51' W 075°14'0 0.0
2018-Jan-18 17:28N 39°51' W 075°14'0 0.0
2018-Jan-18 16:58N 39°51' W 075°14'0 0.0
2018-Jan-18 16:28N 39°51' W 075°14'0 0.0
2018-Jan-18 16:01N 39°51' W 075°14'0 0.0
2018-Jan-18 15:25N 39°51' W 075°14'0 0.0
2018-Jan-18 14:58N 39°51' W 075°14'0 0.0
2018-Jan-18 14:28N 39°51' W 075°14'0 0.0
2018-Jan-18 13:55N 39°51' W 075°14'0 0.0
2018-Jan-18 13:28N 39°51' W 075°14'0 0.0
2018-Jan-18 12:55N 39°51' W 075°14'0 0.0
2018-Jan-18 12:30N 39°51' W 075°14'0 0.0
2018-Jan-18 11:58N 39°51' W 075°14'0 0.0
2018-Jan-18 11:28N 39°51' W 075°14'0 0.0
2018-Jan-18 11:01N 39°51' W 075°14'0 0.0
2018-Jan-18 10:30N 39°51' W 075°14'0 0.0
2018-Jan-18 09:58N 39°51' W 075°14'0 0.0
2018-Jan-18 09:28N 39°51' W 075°14'0 0.0
2018-Jan-18 09:00N 39°51' W 075°14'0 0.0
2018-Jan-18 08:31N 39°51' W 075°14'0 0.0
2018-Jan-18 08:01N 39°51' W 075°14'0 0.0
2018-Jan-18 07:31N 39°51' W 075°14'0 0.0
2018-Jan-18 07:01N 39°51' W 075°14'0 0.0
2018-Jan-18 06:31N 39°51' W 075°14'0 0.0
2018-Jan-18 05:58N 39°51' W 075°14'0 0.0
2018-Jan-18 05:28N 39°51' W 075°14'0 0.0
2018-Jan-18 04:58N 39°51' W 075°14'0 0.0
2018-Jan-18 04:28N 39°51' W 075°14'0 0.0
2018-Jan-18 03:58N 39°51' W 075°14'0 0.0
2018-Jan-18 03:28N 39°51' W 075°14'0 0.0
2018-Jan-18 02:58N 39°51' W 075°14'0 0.0
2018-Jan-18 02:25N 39°51' W 075°14'0 0.0
2018-Jan-18 01:58N 39°51' W 075°14'0 0.0
2018-Jan-18 01:25N 39°51' W 075°14'0 0.0
2018-Jan-18 00:58N 39°51' W 075°14'0 0.0
2018-Jan-17 23:58N 39°51' W 075°14'0 0.0
2018-Jan-17 23:55N 39°51' W 075°14'  

Dump ship's entire track history